createdAt,value
2022-09-27T00:00:17.003Z,3.67
2022-09-27T00:02:48.773Z,3.63
2022-09-27T00:05:19.497Z,3.87
2022-09-27T00:07:48.979Z,3.33
2022-09-27T00:10:17.643Z,3.90
2022-09-27T00:12:48.795Z,3.87
2022-09-27T00:15:17.014Z,4.00
2022-09-27T00:17:45.728Z,4.57
2022-09-27T00:20:17.433Z,3.70
2022-09-27T00:22:47.059Z,3.50
2022-09-27T00:25:17.190Z,4.17
2022-09-27T00:27:46.748Z,4.17
2022-09-27T00:30:16.482Z,3.70
2022-09-27T00:32:44.901Z,3.90
2022-09-27T00:35:15.212Z,4.00
2022-09-27T00:37:51.872Z,3.97
2022-09-27T00:40:24.384Z,4.47
2022-09-27T00:42:52.687Z,3.80
2022-09-27T00:45:22.123Z,4.17
2022-09-27T00:47:55.381Z,4.07
2022-09-27T00:50:28.493Z,3.60
2022-09-27T00:53:04.978Z,3.80
2022-09-27T00:55:37.130Z,3.53
2022-09-27T00:58:08.615Z,3.57
2022-09-27T01:00:40.329Z,4.10
2022-09-27T01:03:11.523Z,3.87
2022-09-27T01:05:41.838Z,4.43
2022-09-27T01:08:12.059Z,3.57
2022-09-27T01:10:47.575Z,5.00
2022-09-27T01:13:22.057Z,3.40
2022-09-27T01:15:56.862Z,4.10
2022-09-27T01:18:32.265Z,4.10
2022-09-27T01:21:27.116Z,3.77
2022-09-27T01:24:42.488Z,4.00
2022-09-27T01:27:41.479Z,3.40
2022-09-27T01:30:29.938Z,4.50
2022-09-27T01:33:25.783Z,3.80
2022-09-27T01:36:08.879Z,3.67
2022-09-27T01:38:46.992Z,3.63
2022-09-27T01:41:27.066Z,3.80
2022-09-27T01:44:26.299Z,3.83
2022-09-27T01:47:06.666Z,3.80
2022-09-27T01:49:49.965Z,3.67
2022-09-27T01:52:22.949Z,4.10
2022-09-27T01:55:10.850Z,3.37
2022-09-27T01:58:07.597Z,3.63
2022-09-27T02:00:38.513Z,3.83
2022-09-27T02:03:13.141Z,3.80
2022-09-27T02:05:45.700Z,4.00
2022-09-27T02:08:39.088Z,3.63
2022-09-27T02:11:16.562Z,3.90
2022-09-27T02:13:57.279Z,3.47
2022-09-27T02:16:57.782Z,3.50
2022-09-27T02:19:41.363Z,3.70
2022-09-27T02:22:16.537Z,3.87
2022-09-27T02:24:49.927Z,3.27
2022-09-27T02:27:23.562Z,3.93
2022-09-27T02:29:54.827Z,4.03
2022-09-27T02:32:23.787Z,4.10
2022-09-27T02:34:54.933Z,4.00
2022-09-27T02:37:24.515Z,3.90
2022-09-27T02:39:52.597Z,3.90
2022-09-27T02:42:24.369Z,4.07
2022-09-27T02:44:52.883Z,3.40
2022-09-27T02:47:33.821Z,3.47
2022-09-27T02:50:17.646Z,3.70
2022-09-27T02:52:58.022Z,4.30
2022-09-27T02:55:44.390Z,3.77
2022-09-27T02:58:43.078Z,4.10
2022-09-27T03:01:38.402Z,3.90
2022-09-27T03:04:18.687Z,4.37
2022-09-27T03:06:49.280Z,4.27
2022-09-27T03:09:21.471Z,4.67
2022-09-27T03:11:50.991Z,4.20
2022-09-27T03:14:19.813Z,4.60
2022-09-27T03:17:00.616Z,4.30
2022-09-27T03:19:48.419Z,4.70
2022-09-27T03:22:46.862Z,4.27
2022-09-27T03:25:16.416Z,4.53
2022-09-27T03:27:44.942Z,4.50
2022-09-27T03:30:14.654Z,4.50
2022-09-27T03:32:44.553Z,4.33
2022-09-27T03:35:18.833Z,4.40
2022-09-27T03:37:49.314Z,4.83
2022-09-27T03:40:17.644Z,4.67
2022-09-27T03:42:49.953Z,4.90
2022-09-27T03:45:18.955Z,4.70
2022-09-27T03:47:49.176Z,4.70
2022-09-27T03:50:17.506Z,4.40
2022-09-27T03:52:46.737Z,4.77
2022-09-27T03:55:16.369Z,4.47
2022-09-27T03:57:47.441Z,4.20
2022-09-27T04:00:19.098Z,5.07
2022-09-27T04:02:47.345Z,5.07
2022-09-27T04:05:35.610Z,4.47
2022-09-27T04:08:11.222Z,4.50
2022-09-27T04:10:41.042Z,4.17
2022-09-27T04:13:09.895Z,4.47
2022-09-27T04:15:48.657Z,4.40
2022-09-27T04:18:59.189Z,3.97
2022-09-27T04:21:48.573Z,4.50
2022-09-27T04:24:21.315Z,4.33
2022-09-27T04:27:02.907Z,4.60
2022-09-27T04:29:32.395Z,5.10
2022-09-27T04:32:08.085Z,3.73
2022-09-27T04:35:15.413Z,5.33
2022-09-27T04:37:45.368Z,4.10
2022-09-27T04:40:13.966Z,4.33
2022-09-27T04:42:44.382Z,4.43
2022-09-27T04:45:13.277Z,4.43
2022-09-27T04:47:44.274Z,4.87
2022-09-27T04:50:12.590Z,4.57
2022-09-27T04:52:45.132Z,4.90
2022-09-27T04:55:14.578Z,4.70
2022-09-27T04:57:44.221Z,4.83
2022-09-27T05:00:15.301Z,4.70
2022-09-27T05:02:45.002Z,4.50
2022-09-27T05:05:36.471Z,4.87
2022-09-27T05:08:05.190Z,4.53
2022-09-27T05:10:55.918Z,7.17
2022-09-27T05:13:26.500Z,6.63
2022-09-27T05:15:56.127Z,5.60
2022-09-27T05:18:59.193Z,5.73
2022-09-27T05:22:03.548Z,4.40
2022-09-27T05:24:33.859Z,4.03
2022-09-27T05:27:08.380Z,4.73
2022-09-27T05:29:38.415Z,3.90
2022-09-27T05:32:14.312Z,4.03
2022-09-27T05:34:43.280Z,4.00
2022-09-27T05:37:13.197Z,4.27
2022-09-27T05:39:43.009Z,4.57
2022-09-27T05:42:17.442Z,4.07
2022-09-27T05:44:47.774Z,5.17
2022-09-27T05:47:17.998Z,5.63
2022-09-27T05:49:46.164Z,5.60
2022-09-27T05:52:16.826Z,5.13
2022-09-27T05:54:46.501Z,5.83
2022-09-27T05:57:17.864Z,5.60
2022-09-27T05:59:50.343Z,5.30
2022-09-27T06:02:22.498Z,5.20
2022-09-27T06:05:11.216Z,4.60
2022-09-27T06:08:20.337Z,4.63
2022-09-27T06:11:03.225Z,4.80
2022-09-27T06:13:34.528Z,5.10
2022-09-27T06:16:05.164Z,5.43
2022-09-27T06:18:35.382Z,5.10
2022-09-27T06:21:05.678Z,4.53
2022-09-27T06:23:36.344Z,5.30
2022-09-27T06:26:28.106Z,5.20
2022-09-27T06:29:16.749Z,4.83
2022-09-27T06:32:06.473Z,5.47
2022-09-27T06:34:56.084Z,5.60
2022-09-27T06:37:27.069Z,4.90
2022-09-27T06:39:56.121Z,4.83
2022-09-27T06:42:43.777Z,5.60
2022-09-27T06:45:32.832Z,5.17
2022-09-27T06:48:26.471Z,5.50
2022-09-27T06:51:00.560Z,5.90
2022-09-27T06:53:32.866Z,6.37
2022-09-27T06:56:01.663Z,5.63
2022-09-27T06:58:54.624Z,6.20
2022-09-27T07:02:02.010Z,5.43
2022-09-27T07:04:31.794Z,5.67
2022-09-27T07:07:06.331Z,5.83
2022-09-27T07:09:39.219Z,5.43
2022-09-27T07:12:07.903Z,6.07
2022-09-27T07:14:36.161Z,6.00
2022-09-27T07:17:05.957Z,6.33
2022-09-27T07:19:41.978Z,6.30
2022-09-27T07:22:11.069Z,6.10
2022-09-27T07:24:41.904Z,6.27
2022-09-27T07:27:11.301Z,6.80
2022-09-27T07:29:40.156Z,6.03
2022-09-27T07:32:08.871Z,6.93
2022-09-27T07:34:39.029Z,6.00
2022-09-27T07:37:09.758Z,6.10
2022-09-27T07:39:40.717Z,5.40
2022-09-27T07:42:08.853Z,6.70
2022-09-27T07:44:42.344Z,6.23
2022-09-27T07:47:29.513Z,5.60
2022-09-27T07:50:06.509Z,7.00
2022-09-27T07:53:08.044Z,6.70
2022-09-27T07:55:38.316Z,6.30
2022-09-27T07:58:13.087Z,7.00
2022-09-27T08:00:42.094Z,8.37
2022-09-27T08:03:16.219Z,34.87
2022-09-27T08:05:47.885Z,13.00
2022-09-27T08:08:18.897Z,12.47
2022-09-27T08:10:49.174Z,10.03
2022-09-27T08:13:20.293Z,9.40
2022-09-27T08:15:52.660Z,8.97
2022-09-27T08:18:24.408Z,10.90
2022-09-27T08:20:57.832Z,11.07
2022-09-27T08:23:54.075Z,11.07
2022-09-27T08:26:33.416Z,11.17
2022-09-27T08:29:14.353Z,10.00
2022-09-27T08:31:51.946Z,9.33
2022-09-27T08:34:20.746Z,8.50
2022-09-27T08:36:49.018Z,7.40
2022-09-27T08:39:18.525Z,7.67
2022-09-27T08:41:55.960Z,5.00
2022-09-27T08:44:35.497Z,6.17
2022-09-27T08:47:25.939Z,5.60
2022-09-27T08:49:57.853Z,5.00
2022-09-27T08:52:28.987Z,4.50
2022-09-27T08:55:03.800Z,5.97
2022-09-27T08:57:31.953Z,6.13
2022-09-27T09:00:06.319Z,4.20
2022-09-27T09:02:36.681Z,4.47
2022-09-27T09:05:08.456Z,5.20
2022-09-27T09:07:47.743Z,4.47
2022-09-27T09:10:48.007Z,5.40
2022-09-27T09:13:27.802Z,4.23
2022-09-27T09:16:08.591Z,3.70
2022-09-27T09:18:58.015Z,8.40
2022-09-27T09:21:47.153Z,5.77
2022-09-27T09:24:36.886Z,3.53
2022-09-27T09:27:13.503Z,4.03
2022-09-27T09:29:58.048Z,5.33
2022-09-27T09:32:34.784Z,3.57
2022-09-27T09:35:05.237Z,6.23
2022-09-27T09:37:38.368Z,3.57
2022-09-27T09:40:17.072Z,3.10
2022-09-27T09:42:50.288Z,5.77
2022-09-27T09:45:24.126Z,3.40
2022-09-27T09:47:56.662Z,3.20
2022-09-27T09:50:28.908Z,2.37
2022-09-27T09:53:02.655Z,3.87
2022-09-27T09:55:34.716Z,2.20
2022-09-27T09:58:17.741Z,6.73
2022-09-27T10:00:52.487Z,2.73
2022-09-27T10:03:20.808Z,3.27
2022-09-27T10:05:49.229Z,3.60
2022-09-27T10:08:20.054Z,3.10
2022-09-27T10:10:52.930Z,3.27
2022-09-27T10:13:38.593Z,6.57
2022-09-27T10:16:09.688Z,4.50
2022-09-27T10:18:38.739Z,4.90
2022-09-27T10:21:11.908Z,4.83
2022-09-27T10:24:06.703Z,3.77
2022-09-27T10:27:13.279Z,3.27
2022-09-27T10:29:44.183Z,3.53
2022-09-27T10:32:22.948Z,2.87
2022-09-27T10:34:52.423Z,3.00
2022-09-27T10:37:23.233Z,3.07
2022-09-27T10:40:00.746Z,2.93
2022-09-27T10:42:34.845Z,2.37
2022-09-27T10:45:25.966Z,2.07
2022-09-27T10:48:20.440Z,3.13
2022-09-27T10:50:59.314Z,2.37
2022-09-27T10:53:39.203Z,2.30
2022-09-27T10:56:22.990Z,2.10
2022-09-27T10:58:52.138Z,2.87
2022-09-27T11:01:22.891Z,2.33
2022-09-27T11:04:06.492Z,1.63
2022-09-27T11:06:39.348Z,1.40
2022-09-27T11:09:26.445Z,2.23
2022-09-27T11:12:11.454Z,2.40
2022-09-27T11:14:39.736Z,3.50
2022-09-27T11:17:16.192Z,2.20
2022-09-27T11:20:18.838Z,2.50
2022-09-27T11:23:20.084Z,2.00
2022-09-27T11:26:09.011Z,2.70
2022-09-27T11:28:45.737Z,2.60
2022-09-27T11:31:32.023Z,2.00
2022-09-27T11:34:31.081Z,1.53
2022-09-27T11:37:09.341Z,2.10
2022-09-27T11:39:51.180Z,1.60
2022-09-27T11:42:34.706Z,1.43
2022-09-27T11:45:34.383Z,1.53
2022-09-27T11:48:18.020Z,2.10
2022-09-27T11:51:00.991Z,1.33
2022-09-27T11:53:42.270Z,2.03
2022-09-27T11:56:23.759Z,1.67
2022-09-27T11:59:02.122Z,1.70
2022-09-27T12:01:36.847Z,1.80
2022-09-27T12:04:38.442Z,2.37
2022-09-27T12:07:12.889Z,2.63
2022-09-27T12:09:44.629Z,2.70
2022-09-27T12:12:15.213Z,2.10
2022-09-27T12:14:47.359Z,1.53
2022-09-27T12:17:20.215Z,2.10
2022-09-27T12:19:52.672Z,1.60
2022-09-27T12:23:00.688Z,1.80
2022-09-27T12:25:54.368Z,2.13
2022-09-27T12:28:53.233Z,7.10
2022-09-27T12:31:30.335Z,2.47
2022-09-27T12:34:09.768Z,2.97
2022-09-27T12:36:43.977Z,2.50
2022-09-27T12:39:21.068Z,2.70
2022-09-27T12:42:02.328Z,2.40
2022-09-27T12:44:50.976Z,1.90
2022-09-27T12:47:36.344Z,1.90
2022-09-27T12:50:20.107Z,1.80
2022-09-27T12:52:54.426Z,1.70
2022-09-27T12:55:50.869Z,1.77
2022-09-27T12:58:42.104Z,1.53
2022-09-27T13:01:21.342Z,1.47
2022-09-27T13:04:37.234Z,1.40
